• Join FlightAware (Why Join?)
  • Login
  • US Flag 
05:12PM EDT


 

Airport Tracker/Info


-or-


 

Live Flight TrackerFlight Track Log ✈ AWE1940 ✈ 11-Aug-2013 ✈ KCLT - KALB

Flight Track Log - Related Links

Times and Time Zones

All times are in EDT time to prevent confusion due to time zone crossing. See the AWE1940 flight status page for this flight to view local times or setup timezone preferences in your user account.

Time Position Orientation Groundspeed Altitude Reporting Facility
EDT Latitude Longitude Course Direction KTS MPH feet Rate Location/Type
10:20PM 35.1928 -80.9356 72° East 163 188 1,700  Level Atlanta Center
10:21PM 35.1336 -80.8972 152° Southeast 255 293 4,100 2,400 Climbing Atlanta Center
10:22PM 35.1719 -80.7764 69° East 290 334 8,200 2,700 Climbing Atlanta Center
10:23PM 35.2194 -80.5528 30° Northeast  Level FlightAware Approximate
10:23PM 35.2092 -80.6858 63° Northeast 290 334 10,800  Level Atlanta Center
10:24PM 35.3167 -80.4826 90° East  Level FlightAware Approximate
10:25PM 35.3591 -80.3691 72° East  Level FlightAware Approximate
10:26PM 35.3039 -80.4531 63° Northeast 352 405 16,000  Level Washington Center
10:27PM 35.3525 -80.3364 63° Northeast 370 426 18,500 2,220 Climbing Washington Center
10:28PM 35.3964 -80.2294 63° Northeast 376 433 20,500 2,160 Climbing Washington Center
10:29PM 35.4431 -80.1022 66° East 396 456 22,900 2,160 Climbing Washington Center
10:30PM 35.4817 -79.9589 72° East 401 461 24,900 1,860 Climbing Washington Center
10:31PM 35.5158 -79.8178 73° East 407 468 26,600 1,500 Climbing Washington Center
10:32PM 35.5522 -79.6717 73° East 424 488 28,000 1,440 Climbing Washington Center
10:33PM 35.5931 -79.5156 72° East 461 531 29,500 1,380 Climbing Washington Center
10:34PM 35.6394 -79.3719 68° East 467 537 30,800 1,500 Climbing Washington Center
10:35PM 35.6983 -79.2239 64° Northeast 467 537 32,600 1,080 Climbing Washington Center
10:36PM 35.7567 -79.0808 63° Northeast 467 537 33,000 180 Climbing Washington Center
10:37PM 35.8172 -78.9347 63° Northeast 467 537 33,000  Level Washington Center
10:38PM 35.8756 -78.7886 64° Northeast 467 537 33,000  Level Washington Center
10:39PM 35.9439 -78.6478 59° Northeast 467 537 33,000  Level Washington Center
10:40PM 36.0100 -78.5117 59° Northeast 467 537 33,000  Level Washington Center
10:41PM 36.0781 -78.3703 59° Northeast 467 537 33,000  Level Washington Center
10:42PM 36.1436 -78.2308 60° Northeast 467 537 33,000  Level Washington Center
10:43PM 36.2114 -78.0892 59° Northeast 467 537 33,000  Level Washington Center
10:44PM 36.2703 -77.9647 60° Northeast 461 531 33,000  Level Washington Center
10:45PM 36.3378 -77.8250 59° Northeast 461 531 33,000  Level Washington Center
10:46PM 36.4028 -77.6850 60° Northeast 461 531 33,000  Level Washington Center
10:47PM 36.4678 -77.5419 61° Northeast 466 536 33,000  Level Washington Center
10:48PM 36.5325 -77.4014 60° Northeast 466 536 33,000  Level Washington Center
10:49PM 36.6014 -77.2608 59° Northeast 466 536 33,000  Level Washington Center
10:50PM 36.6658 -77.1144 61° Northeast 466 536 33,000  Level Washington Center
10:51PM 36.7447 -76.9864 52° Northeast 466 536 33,000  Level Washington Center
10:52PM 36.8500 -76.8897 36° Northeast 461 531 33,000  Level Washington Center
10:53PM 36.9575 -76.7900 37° Northeast 461 531 33,000  Level Washington Center
10:54PM 37.0689 -76.7033 32° Northeast 468 539 33,000  Level Washington Center
10:55PM 37.1989 -76.6114 29° Northeast 473 544 33,000  Level Washington Center
10:56PM 37.3122 -76.5267 31° Northeast 473 544 33,000  Level Washington Center
10:57PM 37.4278 -76.4444 29° Northeast 473 544 33,000  Level Washington Center
10:58PM 37.5408 -76.3644 29° Northeast 468 539 33,000  Level Washington Center
10:59PM 37.6539 -76.2817 30° Northeast 468 539 33,000  Level Washington Center
11:00PM 37.7442 -76.2142 31° Northeast 468 539 33,000  Level Washington Center
11:01PM 37.8781 -76.1153 30° Northeast 463 533 33,000  Level Washington Center
11:02PM 37.9908 -76.0317 30° Northeast 463 533 33,000  Level Washington Center
11:03PM 38.1017 -75.9506 30° Northeast 463 533 33,000  Level Washington Center
11:04PM 38.2167 -75.8667 30° Northeast 468 539 33,000  Level Washington Center
11:05PM 38.3294 -75.7797 31° Northeast 462 532 33,000  Level Washington Center
11:06PM 38.4419 -75.7003 29° Northeast 462 532 33,000 -60 Level Washington Center
11:07PM 38.5547 -75.6156 30° Northeast 462 532 32,900  Descending Washington Center
11:08PM 38.6653 -75.5331 30° Northeast 462 532 33,000  Climbing Washington Center
11:09PM 38.7797 -75.4478 30° Northeast 468 539 33,000  Level Washington Center
11:10PM 38.8900 -75.3597 32° Northeast 468 539 33,000  Level Washington Center
11:11PM 39.0044 -75.2764 29° Northeast 468 539 33,000 -60 Level Washington Center
11:12PM 39.1169 -75.1903 31° Northeast 468 539 32,900  Descending Washington Center
11:13PM 39.2292 -75.1014 32° Northeast 468 539 33,000  Climbing Washington Center
11:15PM 39.4586 -74.9253 31° Northeast 473 544 33,000  Level New York Center
11:16PM 39.5703 -74.8347 32° Northeast 473 544 33,000  Level New York Center
11:17PM 39.6817 -74.7494 30° Northeast 467 537 33,000  Level New York Center
11:18PM 39.7953 -74.6586 32° Northeast 467 537 33,000  Level New York Center
11:19PM 39.9028 -74.6161 17° North 448 516 33,000  Level New York Center
11:20PM 40.0353 -74.5800 12° North 437 503 33,000  Level New York Center
11:21PM 40.1447 -74.5533 11° North 437 503 33,000  Level New York Center
11:22PM 40.2667 -74.5139 14° North 432 497 33,000 -60 Level New York Center
11:23PM 40.3886 -74.4794 12° North 437 503 32,900 -600 Descending New York Center
11:24PM 40.6094 -74.4167 12° North 444 511 31,400 -900 Descending Boston Center
11:25PM 40.7311 -74.3819 12° North 449 517 30,400 -1,020 Descending Boston Center
11:26PM 40.8525 -74.3525 10° North 447 514 29,400 -1,020 Descending Boston Center
11:27PM 40.9717 -74.3231 11° North 435 501 28,400 -1,020 Descending Boston Center
11:28PM 41.0869 -74.2881 13° North 429 494 27,400 -1,020 Descending Boston Center
11:29PM 41.2019 -74.2553 12° North 423 487 26,400 -720 Descending Boston Center
11:30PM 41.3236 -74.2175 13° North 413 475 26,000 -300 Descending Boston Center
11:31PM 41.4325 -74.1872 12° North 408 470 25,900 -1,860 Descending Boston Center
11:32PM 41.5286 -74.1592 12° North 392 451 22,400 -3,300 Descending Boston Center
11:33PM 41.6417 -74.1261 12° North 398 458 19,300 -2,580 Descending Boston Center
11:34PM 41.7547 -74.0958 11° North 385 443 17,200 -2,040 Descending Boston Center
11:35PM 41.8258 -74.0756 12° North 378 435 15,300 -2,580 Descending Boston Center
11:36PM 41.9389 -74.0450 11° North 364 419 12,700 -2,640 Descending Boston Center
11:37PM 42.0081 -74.0214 14° North 354 407 11,300 -1,260 Descending Boston Center
11:38PM 42.0708 -74.0036 12° North 352 405 11,000 -240 Descending Boston Center
11:39PM 42.1481 -73.9803 13° North 330 380 10,900 -960 Descending Boston Center
11:40PM 42.2319 -73.9486 16° North 292 336 9,100 -1,680 Descending Boston Center
11:41PM 42.3031 -73.9278 12° North 278 320 7,600 -1,500 Descending Boston Center
11:42PM 42.3847 -73.8989 15° North 278 320 6,200 -1,500 Descending Boston Center
11:43PM 42.4789 -73.8644 15° North 264 304 4,300 -1,200 Descending Boston Center
11:44PM 42.5250 -73.8458 17° North 259 298 3,800 -900 Descending Boston Center
11:45PM 42.5817 -73.8275 13° North 238 274 2,800 -840 Descending Boston Center
11:46PM 42.6506 -73.8064 13° North 232 267 2,200 -840 Descending Boston Center
11:47PM 42.7028 -73.8075 359° North 140 161 1,000 -960 Descending Boston Center